sensor_id;sensor_type;location;lat;lon;timestamp;pressure;altitude;pressure_sealevel;temperature;humidity
57232;BME280;43488;46.934;8.276;2023-04-01T00:00:54;95693.09;;;7.40;95.51
57232;BME280;43488;46.934;8.276;2023-04-01T00:03:24;95697.16;;;7.43;95.04
57232;BME280;43488;46.934;8.276;2023-04-01T00:05:55;95693.91;;;7.40;94.80
57232;BME280;43488;46.934;8.276;2023-04-01T00:08:24;95698.78;;;7.30;95.94
57232;BME280;43488;46.934;8.276;2023-04-01T00:10:54;95688.94;;;7.32;96.33
57232;BME280;43488;46.934;8.276;2023-04-01T00:13:22;95686.91;;;7.34;96.27
57232;BME280;43488;46.934;8.276;2023-04-01T00:15:49;95682.69;;;7.33;94.67
57232;BME280;43488;46.934;8.276;2023-04-01T00:18:17;95676.22;;;7.36;93.91
57232;BME280;43488;46.934;8.276;2023-04-01T00:20:50;95675.59;;;7.40;94.89
57232;BME280;43488;46.934;8.276;2023-04-01T00:23:19;95668.34;;;7.43;94.62
57232;BME280;43488;46.934;8.276;2023-04-01T00:25:47;95669.94;;;7.44;94.16
57232;BME280;43488;46.934;8.276;2023-04-01T00:28:17;95675.56;;;7.47;93.92
57232;BME280;43488;46.934;8.276;2023-04-01T00:30:46;95670.91;;;7.49;94.21
57232;BME280;43488;46.934;8.276;2023-04-01T00:33:14;95671.53;;;7.51;93.31
57232;BME280;43488;46.934;8.276;2023-04-01T00:35:42;95654.41;;;7.49;92.66
57232;BME280;43488;46.934;8.276;2023-04-01T00:38:09;95662.44;;;7.54;92.81
57232;BME280;43488;46.934;8.276;2023-04-01T00:40:41;95655.41;;;7.54;93.32
57232;BME280;43488;46.934;8.276;2023-04-01T00:43:17;95660.03;;;7.52;93.81
57232;BME280;43488;46.934;8.276;2023-04-01T00:45:48;95645.53;;;7.50;94.10
57232;BME280;43488;46.934;8.276;2023-04-01T00:48:22;95649.56;;;7.52;94.90
57232;BME280;43488;46.934;8.276;2023-04-01T00:51:04;95649.78;;;7.51;94.14
57232;BME280;43488;46.934;8.276;2023-04-01T00:53:38;95668.72;;;7.46;93.37
57232;BME280;43488;46.934;8.276;2023-04-01T00:56:40;95666.09;;;7.46;93.41
57232;BME280;43488;46.934;8.276;2023-04-01T00:59:18;95650.59;;;7.45;93.58
57232;BME280;43488;46.934;8.276;2023-04-01T01:01:49;95653.03;;;7.39;93.67
57232;BME280;43488;46.934;8.276;2023-04-01T01:04:33;95645.00;;;7.41;94.17
57232;BME280;43488;46.934;8.276;2023-04-01T01:07:27;95654.44;;;7.42;93.59
57232;BME280;43488;46.934;8.276;2023-04-01T01:10:26;95655.06;;;7.37;91.96
57232;BME280;43488;46.934;8.276;2023-04-01T01:13:26;95648.03;;;7.31;92.33
57232;BME280;43488;46.934;8.276;2023-04-01T01:16:40;95647.22;;;7.31;90.10
57232;BME280;43488;46.934;8.276;2023-04-01T01:22:42;95638.75;;;7.35;91.65
57232;BME280;43488;46.934;8.276;2023-04-01T01:25:40;95628.50;;;7.27;93.18
57232;BME280;43488;46.934;8.276;2023-04-01T01:28:53;95617.84;;;7.29;92.40
57232;BME280;43488;46.934;8.276;2023-04-01T01:31:44;95617.03;;;7.22;92.73
57232;BME280;43488;46.934;8.276;2023-04-01T01:37:24;95607.00;;;7.19;91.60
57232;BME280;43488;46.934;8.276;2023-04-01T01:39:55;95610.22;;;7.21;91.78
57232;BME280;43488;46.934;8.276;2023-04-01T01:42:24;95612.63;;;7.22;90.80
57232;BME280;43488;46.934;8.276;2023-04-01T01:44:54;95605.19;;;7.19;90.80
57232;BME280;43488;46.934;8.276;2023-04-01T01:47:23;95603.59;;;7.18;89.65
57232;BME280;43488;46.934;8.276;2023-04-01T01:49:53;95608.59;;;7.20;90.20
57232;BME280;43488;46.934;8.276;2023-04-01T01:52:23;95608.22;;;7.16;90.53
57232;BME280;43488;46.934;8.276;2023-04-01T01:54:56;95603.38;;;7.20;90.45
57232;BME280;43488;46.934;8.276;2023-04-01T01:57:34;95603.38;;;7.20;89.35
57232;BME280;43488;46.934;8.276;2023-04-01T02:00:09;95606.19;;;7.18;88.69
57232;BME280;43488;46.934;8.276;2023-04-01T02:02:44;95602.19;;;7.16;88.39
57232;BME280;43488;46.934;8.276;2023-04-01T02:05:19;95594.56;;;7.14;87.08
57232;BME280;43488;46.934;8.276;2023-04-01T02:08:03;95595.13;;;7.16;86.46
57232;BME280;43488;46.934;8.276;2023-04-01T02:10:39;95596.75;;;7.17;86.09
57232;BME280;43488;46.934;8.276;2023-04-01T02:13:24;95591.50;;;7.17;85.81
57232;BME280;43488;46.934;8.276;2023-04-01T02:15:59;95593.13;;;7.18;84.31
57232;BME280;43488;46.934;8.276;2023-04-01T02:18:28;95598.53;;;7.23;82.52
57232;BME280;43488;46.934;8.276;2023-04-01T02:20:59;95596.09;;;7.28;81.18
57232;BME280;43488;46.934;8.276;2023-04-01T02:23:28;95610.19;;;7.27;80.27
57232;BME280;43488;46.934;8.276;2023-04-01T02:25:56;95596.28;;;7.33;77.33
57232;BME280;43488;46.934;8.276;2023-04-01T02:28:24;95600.03;;;7.44;75.36
57232;BME280;43488;46.934;8.276;2023-04-01T02:30:52;95589.34;;;7.52;75.50
57232;BME280;43488;46.934;8.276;2023-04-01T02:33:20;95587.88;;;7.56;75.53
57232;BME280;43488;46.934;8.276;2023-04-01T02:35:48;95584.88;;;7.59;75.78
57232;BME280;43488;46.934;8.276;2023-04-01T02:38:15;95579.78;;;7.64;74.80
57232;BME280;43488;46.934;8.276;2023-04-01T02:40:49;95570.88;;;7.72;71.80
57232;BME280;43488;46.934;8.276;2023-04-01T02:43:17;95569.00;;;7.79;72.40
57232;BME280;43488;46.934;8.276;2023-04-01T02:45:45;95557.50;;;7.80;72.95
57232;BME280;43488;46.934;8.276;2023-04-01T02:48:13;95559.69;;;7.83;71.80
57232;BME280;43488;46.934;8.276;2023-04-01T02:50:41;95561.94;;;7.80;71.89
57232;BME280;43488;46.934;8.276;2023-04-01T02:53:09;95552.28;;;7.80;71.54
57232;BME280;43488;46.934;8.276;2023-04-01T02:55:36;95555.91;;;7.79;72.02
57232;BME280;43488;46.934;8.276;2023-04-01T02:58:03;95549.66;;;7.80;70.15
57232;BME280;43488;46.934;8.276;2023-04-01T03:00:30;95547.41;;;7.84;70.91
57232;BME280;43488;46.934;8.276;2023-04-01T03:02:58;95545.56;;;7.84;68.10
57232;BME280;43488;46.934;8.276;2023-04-01T03:05:25;95543.13;;;7.89;66.17
57232;BME280;43488;46.934;8.276;2023-04-01T03:07:52;95542.69;;;7.92;65.79
57232;BME280;43488;46.934;8.276;2023-04-01T03:10:20;95539.22;;;7.98;65.32
57232;BME280;43488;46.934;8.276;2023-04-01T03:12:47;95529.81;;;7.91;68.58
57232;BME280;43488;46.934;8.276;2023-04-01T03:15:15;95541.34;;;7.83;69.50
57232;BME280;43488;46.934;8.276;2023-04-01T03:17:43;95529.72;;;7.79;69.28
57232;BME280;43488;46.934;8.276;2023-04-01T03:20:12;95530.72;;;7.78;69.29
57232;BME280;43488;46.934;8.276;2023-04-01T03:22:39;95522.47;;;7.75;69.68
57232;BME280;43488;46.934;8.276;2023-04-01T03:25:07;95531.34;;;7.74;69.57
57232;BME280;43488;46.934;8.276;2023-04-01T03:27:35;95530.56;;;7.73;68.42
57232;BME280;43488;46.934;8.276;2023-04-01T03:30:04;95536.38;;;7.75;69.14
57232;BME280;43488;46.934;8.276;2023-04-01T03:32:31;95539.06;;;7.68;69.58
57232;BME280;43488;46.934;8.276;2023-04-01T03:34:59;95542.47;;;7.69;69.41
57232;BME280;43488;46.934;8.276;2023-04-01T03:37:27;95539.69;;;7.64;70.13
57232;BME280;43488;46.934;8.276;2023-04-01T03:39:54;95539.91;;;7.62;70.07
57232;BME280;43488;46.934;8.276;2023-04-01T03:42:21;95537.56;;;7.48;71.13
57232;BME280;43488;46.934;8.276;2023-04-01T03:44:49;95545.63;;;7.46;70.46
57232;BME280;43488;46.934;8.276;2023-04-01T03:47:17;95547.47;;;7.46;70.23
57232;BME280;43488;46.934;8.276;2023-04-01T03:49:45;95542.00;;;7.47;70.69
57232;BME280;43488;46.934;8.276;2023-04-01T03:52:13;95535.53;;;7.50;70.57
57232;BME280;43488;46.934;8.276;2023-04-01T03:54:40;95552.25;;;7.49;70.06
57232;BME280;43488;46.934;8.276;2023-04-01T03:57:08;95559.88;;;7.57;70.74
57232;BME280;43488;46.934;8.276;2023-04-01T03:59:36;95565.31;;;7.55;70.36
57232;BME280;43488;46.934;8.276;2023-04-01T04:02:04;95562.97;;;7.47;71.94
57232;BME280;43488;46.934;8.276;2023-04-01T04:04:32;95568.88;;;7.67;64.02
57232;BME280;43488;46.934;8.276;2023-04-01T04:06:59;95573.44;;;8.04;60.89
57232;BME280;43488;46.934;8.276;2023-04-01T04:09:27;95572.06;;;8.01;63.50
57232;BME280;43488;46.934;8.276;2023-04-01T04:11:54;95563.03;;;7.97;65.92
57232;BME280;43488;46.934;8.276;2023-04-01T04:14:23;95560.28;;;7.85;66.03
57232;BME280;43488;46.934;8.276;2023-04-01T04:16:50;95567.66;;;7.95;63.76
57232;BME280;43488;46.934;8.276;2023-04-01T04:19:17;95564.19;;;8.01;63.12
57232;BME280;43488;46.934;8.276;2023-04-01T04:21:45;95565.59;;;8.04;63.77
57232;BME280;43488;46.934;8.276;2023-04-01T04:24:13;95573.03;;;8.07;65.42
57232;BME280;43488;46.934;8.276;2023-04-01T04:26:41;95583.94;;;8.04;65.66
57232;BME280;43488;46.934;8.276;2023-04-01T04:29:09;95608.97;;;7.99;65.95
57232;BME280;43488;46.934;8.276;2023-04-01T04:31:36;95616.63;;;8.01;67.23
57232;BME280;43488;46.934;8.276;2023-04-01T04:34:03;95617.03;;;8.05;66.57
57232;BME280;43488;46.934;8.276;2023-04-01T04:36:30;95620.22;;;8.07;69.45
57232;BME280;43488;46.934;8.276;2023-04-01T04:38:58;95606.91;;;8.08;70.46
57232;BME280;43488;46.934;8.276;2023-04-01T04:41:28;95613.97;;;8.08;70.83
57232;BME280;43488;46.934;8.276;2023-04-01T04:43:57;95615.56;;;8.09;70.32
57232;BME280;43488;46.934;8.276;2023-04-01T04:46:25;95607.47;;;8.10;68.48
57232;BME280;43488;46.934;8.276;2023-04-01T04:48:53;95613.75;;;8.09;68.97
57232;BME280;43488;46.934;8.276;2023-04-01T04:51:20;95605.66;;;8.11;69.45
57232;BME280;43488;46.934;8.276;2023-04-01T04:53:51;95604.41;;;8.13;68.65
57232;BME280;43488;46.934;8.276;2023-04-01T04:56:20;95605.25;;;8.14;69.78
57232;BME280;43488;46.934;8.276;2023-04-01T04:58:48;95596.78;;;8.12;70.78
57232;BME280;43488;46.934;8.276;2023-04-01T05:01:17;95614.53;;;8.10;70.58
57232;BME280;43488;46.934;8.276;2023-04-01T05:03:45;95613.38;;;8.06;70.67
57232;BME280;43488;46.934;8.276;2023-04-01T05:06:14;95606.69;;;8.10;70.19
57232;BME280;43488;46.934;8.276;2023-04-01T05:08:44;95602.47;;;8.09;72.15
57232;BME280;43488;46.934;8.276;2023-04-01T05:11:17;95596.63;;;8.07;72.57
57232;BME280;43488;46.934;8.276;2023-04-01T05:13:46;95592.59;;;8.04;72.32
57232;BME280;43488;46.934;8.276;2023-04-01T05:16:17;95595.03;;;8.06;72.58
57232;BME280;43488;46.934;8.276;2023-04-01T05:18:45;95595.63;;;8.08;72.14
57232;BME280;43488;46.934;8.276;2023-04-01T05:21:14;95610.53;;;8.07;72.76
57232;BME280;43488;46.934;8.276;2023-04-01T05:23:42;95616.59;;;8.08;72.10
57232;BME280;43488;46.934;8.276;2023-04-01T05:26:14;95612.94;;;8.09;72.60
57232;BME280;43488;46.934;8.276;2023-04-01T05:28:42;95619.41;;;8.06;71.99
57232;BME280;43488;46.934;8.276;2023-04-01T05:31:09;95612.94;;;8.09;72.51
57232;BME280;43488;46.934;8.276;2023-04-01T05:33:37;95603.47;;;8.08;72.65
57232;BME280;43488;46.934;8.276;2023-04-01T05:36:15;95599.63;;;8.10;72.80
57232;BME280;43488;46.934;8.276;2023-04-01T05:38:43;95588.53;;;8.08;72.89
57232;BME280;43488;46.934;8.276;2023-04-01T05:41:15;95592.41;;;8.06;72.43
57232;BME280;43488;46.934;8.276;2023-04-01T05:43:43;95595.63;;;8.08;70.86
57232;BME280;43488;46.934;8.276;2023-04-01T05:46:10;95590.94;;;8.10;70.77
57232;BME280;43488;46.934;8.276;2023-04-01T05:48:37;95611.31;;;8.14;71.34
57232;BME280;43488;46.934;8.276;2023-04-01T05:51:05;95608.47;;;8.16;71.51
57232;BME280;43488;46.934;8.276;2023-04-01T05:53:32;95608.47;;;8.16;70.42
57232;BME280;43488;46.934;8.276;2023-04-01T05:56:03;95616.47;;;8.21;70.51
57232;BME280;43488;46.934;8.276;2023-04-01T05:58:31;95604.16;;;8.21;70.86
57232;BME280;43488;46.934;8.276;2023-04-01T06:01:08;95612.19;;;8.26;70.15
57232;BME280;43488;46.934;8.276;2023-04-01T06:03:36;95601.94;;;8.25;70.81
57232;BME280;43488;46.934;8.276;2023-04-01T06:06:04;95604.13;;;8.28;71.99
57232;BME280;43488;46.934;8.276;2023-04-01T06:08:35;95617.66;;;8.25;71.31
57232;BME280;43488;46.934;8.276;2023-04-01T06:11:51;95638.63;;;8.25;72.21
57232;BME280;43488;46.934;8.276;2023-04-01T06:26:11;95640.16;;;8.64;73.49
57232;BME280;43488;46.934;8.276;2023-04-01T06:29:21;95629.81;;;8.69;69.58
57232;BME280;43488;46.934;8.276;2023-04-01T06:37:45;95630.34;;;8.78;71.75
57232;BME280;43488;46.934;8.276;2023-04-01T06:40:52;95626.09;;;8.77;71.95
57232;BME280;43488;46.934;8.276;2023-04-01T06:48:47;95621.59;;;8.84;71.63
57232;BME280;43488;46.934;8.276;2023-04-01T06:51:36;95621.16;;;8.87;70.82
57232;BME280;43488;46.934;8.276;2023-04-01T06:54:26;95630.78;;;8.93;70.90
57232;BME280;43488;46.934;8.276;2023-04-01T06:57:03;95626.91;;;8.96;71.93
57232;BME280;43488;46.934;8.276;2023-04-01T06:59:34;95631.97;;;8.97;72.29
57232;BME280;43488;46.934;8.276;2023-04-01T07:04:45;95619.41;;;8.99;72.04
57232;BME280;43488;46.934;8.276;2023-04-01T07:08:11;95618.41;;;9.00;70.51
57232;BME280;43488;46.934;8.276;2023-04-01T07:16:29;95617.88;;;8.92;69.26
57232;BME280;43488;46.934;8.276;2023-04-01T07:22:26;95638.38;;;9.01;70.59
57232;BME280;43488;46.934;8.276;2023-04-01T07:24:56;95648.66;;;9.03;71.41
57232;BME280;43488;46.934;8.276;2023-04-01T07:27:25;95633.13;;;9.01;75.14
57232;BME280;43488;46.934;8.276;2023-04-01T07:29:52;95645.81;;;9.04;75.23
57232;BME280;43488;46.934;8.276;2023-04-01T07:33:05;95647.63;;;9.04;74.53
57232;BME280;43488;46.934;8.276;2023-04-01T07:36:26;95666.22;;;9.02;72.54
57232;BME280;43488;46.934;8.276;2023-04-01T07:41:32;95659.53;;;8.88;71.72
57232;BME280;43488;46.934;8.276;2023-04-01T07:47:38;95660.91;;;8.91;71.66
57232;BME280;43488;46.934;8.276;2023-04-01T07:50:25;95666.94;;;8.91;71.78
57232;BME280;43488;46.934;8.276;2023-04-01T07:53:19;95650.19;;;8.92;71.64
57232;BME280;43488;46.934;8.276;2023-04-01T07:56:09;95662.84;;;8.95;72.42
57232;BME280;43488;46.934;8.276;2023-04-01T08:04:45;95655.59;;;8.97;72.76
57232;BME280;43488;46.934;8.276;2023-04-01T08:16:53;95663.25;;;9.17;74.88
57232;BME280;43488;46.934;8.276;2023-04-01T08:20:03;95651.50;;;9.20;73.41
57232;BME280;43488;46.934;8.276;2023-04-01T08:23:04;95657.13;;;9.23;73.51
57232;BME280;43488;46.934;8.276;2023-04-01T08:25:33;95655.09;;;9.25;74.47
57232;BME280;43488;46.934;8.276;2023-04-01T08:30:56;95664.78;;;9.25;69.99
57232;BME280;43488;46.934;8.276;2023-04-01T08:33:31;95681.94;;;9.27;69.60
57232;BME280;43488;46.934;8.276;2023-04-01T08:36:05;95669.38;;;9.29;69.18
57232;BME280;43488;46.934;8.276;2023-04-01T08:38:52;95669.25;;;9.24;69.99
57232;BME280;43488;46.934;8.276;2023-04-01T08:44:37;95690.44;;;9.23;72.66
57232;BME280;43488;46.934;8.276;2023-04-01T08:47:54;95683.97;;;9.25;72.25
57232;BME280;43488;46.934;8.276;2023-04-01T09:07:53;95697.09;;;9.07;72.14
57232;BME280;43488;46.934;8.276;2023-04-01T09:25:15;95706.84;;;9.00;75.25
57232;BME280;43488;46.934;8.276;2023-04-01T09:28:16;95695.09;;;9.02;75.08
57232;BME280;43488;46.934;8.276;2023-04-01T09:31:07;95689.00;;;9.08;74.96
57232;BME280;43488;46.934;8.276;2023-04-01T09:48:51;95688.56;;;9.30;72.97
57232;BME280;43488;46.934;8.276;2023-04-01T09:52:09;95689.31;;;9.37;71.52
57232;BME280;43488;46.934;8.276;2023-04-01T10:03:18;95678.19;;;9.72;70.78
57232;BME280;43488;46.934;8.276;2023-04-01T10:21:10;95667.22;;;10.05;66.49
57232;BME280;43488;46.934;8.276;2023-04-01T10:38:33;95642.66;;;10.64;64.17
57232;BME280;43488;46.934;8.276;2023-04-01T10:41:22;95639.22;;;10.75;63.47
57232;BME280;43488;46.934;8.276;2023-04-01T10:53:58;95662.81;;;10.70;61.65
57232;BME280;43488;46.934;8.276;2023-04-01T10:56:59;95662.56;;;10.72;63.33
57232;BME280;43488;46.934;8.276;2023-04-01T11:23:03;95658.91;;;11.08;58.89
57232;BME280;43488;46.934;8.276;2023-04-01T11:28:27;95661.53;;;11.20;56.19
57232;BME280;43488;46.934;8.276;2023-04-01T11:31:29;95660.81;;;11.36;53.82
57232;BME280;43488;46.934;8.276;2023-04-01T11:38:14;95635.84;;;11.67;50.41
57232;BME280;43488;46.934;8.276;2023-04-01T11:44:07;95613.03;;;12.01;52.91
57232;BME280;43488;46.934;8.276;2023-04-01T11:56:17;95594.03;;;12.49;50.00
57232;BME280;43488;46.934;8.276;2023-04-01T12:05:41;95585.25;;;12.82;49.74
57232;BME280;43488;46.934;8.276;2023-04-01T12:17:54;95601.69;;;12.68;45.09
57232;BME280;43488;46.934;8.276;2023-04-01T12:36:08;95627.84;;;12.69;48.60
57232;BME280;43488;46.934;8.276;2023-04-01T12:39:33;95614.31;;;12.82;48.36
57232;BME280;43488;46.934;8.276;2023-04-01T12:42:50;95610.56;;;12.78;47.72
57232;BME280;43488;46.934;8.276;2023-04-01T12:45:38;95613.03;;;12.68;45.62
57232;BME280;43488;46.934;8.276;2023-04-01T12:49:01;95611.81;;;12.93;45.71
57232;BME280;43488;46.934;8.276;2023-04-01T13:15:48;95565.16;;;13.69;46.12
57232;BME280;43488;46.934;8.276;2023-04-01T13:27:25;95541.78;;;14.15;43.33
57232;BME280;43488;46.934;8.276;2023-04-01T13:30:27;95538.53;;;14.08;42.94
57232;BME280;43488;46.934;8.276;2023-04-01T13:33:25;95533.50;;;14.06;42.10
57232;BME280;43488;46.934;8.276;2023-04-01T13:36:36;95539.03;;;14.05;42.66
57232;BME280;43488;46.934;8.276;2023-04-01T13:42:16;95530.59;;;14.08;45.38
57232;BME280;43488;46.934;8.276;2023-04-01T13:44:50;95535.13;;;14.12;45.13
57232;BME280;43488;46.934;8.276;2023-04-01T13:50:42;95538.63;;;14.18;43.59
57232;BME280;43488;46.934;8.276;2023-04-01T13:53:42;95532.22;;;14.09;42.18
57232;BME280;43488;46.934;8.276;2023-04-01T13:56:28;95540.78;;;14.21;40.69
57232;BME280;43488;46.934;8.276;2023-04-01T14:11:30;95522.94;;;14.86;39.33
57232;BME280;43488;46.934;8.276;2023-04-01T14:17:47;95527.69;;;14.84;39.27
57232;BME280;43488;46.934;8.276;2023-04-01T14:20:28;95527.38;;;14.75;39.86
57232;BME280;43488;46.934;8.276;2023-04-01T14:23:30;95525.69;;;14.59;39.59
57232;BME280;43488;46.934;8.276;2023-04-01T14:41:21;95520.94;;;13.91;40.69
57232;BME280;43488;46.934;8.276;2023-04-01T14:50:44;95540.75;;;13.13;48.03
57232;BME280;43488;46.934;8.276;2023-04-01T14:56:00;95535.06;;;13.21;49.16
57232;BME280;43488;46.934;8.276;2023-04-01T14:58:50;95528.53;;;13.29;50.61
57232;BME280;43488;46.934;8.276;2023-04-01T15:02:00;95521.91;;;13.26;50.99
57232;BME280;43488;46.934;8.276;2023-04-01T15:21:04;95517.03;;;13.40;50.11
57232;BME280;43488;46.934;8.276;2023-04-01T15:26:13;95516.47;;;13.38;49.94
57232;BME280;43488;46.934;8.276;2023-04-01T15:31:50;95514.66;;;13.71;48.21
57232;BME280;43488;46.934;8.276;2023-04-01T15:40:31;95510.47;;;14.86;45.68
57232;BME280;43488;46.934;8.276;2023-04-01T15:43:40;95511.34;;;15.07;42.40
57232;BME280;43488;46.934;8.276;2023-04-01T15:46:46;95496.31;;;15.23;41.76
57232;BME280;43488;46.934;8.276;2023-04-01T15:49:31;95502.47;;;15.39;41.83
57232;BME280;43488;46.934;8.276;2023-04-01T15:55:09;95508.06;;;15.47;38.64
57232;BME280;43488;46.934;8.276;2023-04-01T16:01:02;95501.81;;;15.01;38.67
57232;BME280;43488;46.934;8.276;2023-04-01T16:04:06;95507.88;;;14.91;39.13
57232;BME280;43488;46.934;8.276;2023-04-01T16:06:53;95494.50;;;14.66;38.36
57232;BME280;43488;46.934;8.276;2023-04-01T16:15:54;95504.09;;;14.40;41.30
57232;BME280;43488;46.934;8.276;2023-04-01T16:18:40;95505.34;;;14.27;40.25
57232;BME280;43488;46.934;8.276;2023-04-01T16:25:05;95502.53;;;14.07;40.97
57232;BME280;43488;46.934;8.276;2023-04-01T16:28:19;95511.16;;;13.92;43.04
57232;BME280;43488;46.934;8.276;2023-04-01T16:34:02;95525.25;;;13.71;42.96
57232;BME280;43488;46.934;8.276;2023-04-01T16:36:43;95525.59;;;13.52;42.11
57232;BME280;43488;46.934;8.276;2023-04-01T16:39:44;95529.03;;;13.26;42.95
57232;BME280;43488;46.934;8.276;2023-04-01T16:47:55;95547.66;;;12.97;46.01
57232;BME280;43488;46.934;8.276;2023-04-01T16:50:30;95545.78;;;12.93;47.21
57232;BME280;43488;46.934;8.276;2023-04-01T16:56:23;95543.56;;;12.46;49.89
57232;BME280;43488;46.934;8.276;2023-04-01T17:05:05;95554.38;;;12.11;51.80
57232;BME280;43488;46.934;8.276;2023-04-01T17:11:10;95559.72;;;11.99;51.64
57232;BME280;43488;46.934;8.276;2023-04-01T17:14:37;95568.28;;;11.89;51.66
57232;BME280;43488;46.934;8.276;2023-04-01T17:17:37;95572.50;;;11.90;51.81
57232;BME280;43488;46.934;8.276;2023-04-01T17:20:43;95575.03;;;11.85;52.11
57232;BME280;43488;46.934;8.276;2023-04-01T17:23:50;95576.97;;;11.78;52.90
57232;BME280;43488;46.934;8.276;2023-04-01T17:26:49;95585.63;;;11.74;51.98
57232;BME280;43488;46.934;8.276;2023-04-01T17:35:58;95593.53;;;11.45;52.73
57232;BME280;43488;46.934;8.276;2023-04-01T17:39:02;95605.66;;;11.46;52.15
57232;BME280;43488;46.934;8.276;2023-04-01T17:41:48;95610.59;;;11.43;53.08
57232;BME280;43488;46.934;8.276;2023-04-01T17:44:57;95617.94;;;11.40;53.08
57232;BME280;43488;46.934;8.276;2023-04-01T18:04:46;95633.25;;;11.03;60.34
57232;BME280;43488;46.934;8.276;2023-04-01T18:10:25;95647.81;;;10.82;63.37
57232;BME280;43488;46.934;8.276;2023-04-01T18:13:12;95654.34;;;10.80;63.81
57232;BME280;43488;46.934;8.276;2023-04-01T18:16:12;95669.53;;;10.78;65.84
57232;BME280;43488;46.934;8.276;2023-04-01T18:22:34;95676.53;;;10.72;63.62
57232;BME280;43488;46.934;8.276;2023-04-01T18:25:37;95668.50;;;10.67;64.83
57232;BME280;43488;46.934;8.276;2023-04-01T18:28:36;95672.06;;;10.61;64.89
57232;BME280;43488;46.934;8.276;2023-04-01T18:31:35;95668.38;;;10.50;67.53
57232;BME280;43488;46.934;8.276;2023-04-01T18:37:30;95675.78;;;10.42;68.57
57232;BME280;43488;46.934;8.276;2023-04-01T18:40:38;95676.38;;;10.44;67.75
57232;BME280;43488;46.934;8.276;2023-04-01T18:43:39;95685.31;;;10.43;67.70
57232;BME280;43488;46.934;8.276;2023-04-01T18:46:39;95695.94;;;10.36;67.31
57232;BME280;43488;46.934;8.276;2023-04-01T18:49:30;95711.41;;;10.44;67.96
57232;BME280;43488;46.934;8.276;2023-04-01T18:52:34;95708.78;;;10.44;69.20
57232;BME280;43488;46.934;8.276;2023-04-01T18:57:54;95731.03;;;10.30;69.31
57232;BME280;43488;46.934;8.276;2023-04-01T19:00:36;95722.28;;;10.18;69.76
57232;BME280;43488;46.934;8.276;2023-04-01T19:03:25;95727.88;;;10.21;70.42
57232;BME280;43488;46.934;8.276;2023-04-01T19:05:56;95726.28;;;10.20;71.03
57232;BME280;43488;46.934;8.276;2023-04-01T19:08:34;95731.63;;;10.14;71.20
57232;BME280;43488;46.934;8.276;2023-04-01T19:11:35;95726.81;;;10.11;71.42
57232;BME280;43488;46.934;8.276;2023-04-01T19:20:47;95749.47;;;9.93;71.93
57232;BME280;43488;46.934;8.276;2023-04-01T19:23:56;95755.13;;;9.97;71.09
57232;BME280;43488;46.934;8.276;2023-04-01T19:26:49;95755.81;;;10.04;70.97
57232;BME280;43488;46.934;8.276;2023-04-01T19:30:08;95756.03;;;10.03;72.24
57232;BME280;43488;46.934;8.276;2023-04-01T19:36:02;95758.44;;;10.04;72.42
57232;BME280;43488;46.934;8.276;2023-04-01T19:38:43;95770.44;;;10.00;72.06
57232;BME280;43488;46.934;8.276;2023-04-01T19:41:27;95775.53;;;9.95;72.20
57232;BME280;43488;46.934;8.276;2023-04-01T19:44:33;95781.91;;;9.87;67.60
57232;BME280;43488;46.934;8.276;2023-04-01T19:50:34;95766.63;;;9.96;65.38
57232;BME280;43488;46.934;8.276;2023-04-01T19:56:31;95783.59;;;10.00;65.31
57232;BME280;43488;46.934;8.276;2023-04-01T20:04:56;95779.66;;;9.91;66.29
57232;BME280;43488;46.934;8.276;2023-04-01T20:07:34;95787.31;;;9.92;66.75
57232;BME280;43488;46.934;8.276;2023-04-01T20:17:38;95771.03;;;9.84;70.07
57232;BME280;43488;46.934;8.276;2023-04-01T20:25:25;95793.59;;;9.73;71.69
57232;BME280;43488;46.934;8.276;2023-04-01T20:31:23;95786.97;;;9.71;71.88
57232;BME280;43488;46.934;8.276;2023-04-01T20:34:31;95791.81;;;9.49;73.59
57232;BME280;43488;46.934;8.276;2023-04-01T20:37:30;95798.13;;;9.23;74.77
57232;BME280;43488;46.934;8.276;2023-04-01T20:40:37;95806.97;;;9.28;73.36
57232;BME280;43488;46.934;8.276;2023-04-01T20:43:23;95806.19;;;9.28;74.20
57232;BME280;43488;46.934;8.276;2023-04-01T20:51:39;95815.03;;;9.08;76.35
57232;BME280;43488;46.934;8.276;2023-04-01T20:55:13;95819.25;;;9.09;77.34
57232;BME280;43488;46.934;8.276;2023-04-01T21:05:19;95826.91;;;9.11;76.58
57232;BME280;43488;46.934;8.276;2023-04-01T21:16:53;95834.56;;;8.88;79.20
57232;BME280;43488;46.934;8.276;2023-04-01T21:19:59;95828.69;;;8.92;78.58
57232;BME280;43488;46.934;8.276;2023-04-01T21:25:53;95818.97;;;8.93;76.05
57232;BME280;43488;46.934;8.276;2023-04-01T21:29:04;95825.63;;;8.95;76.20
57232;BME280;43488;46.934;8.276;2023-04-01T21:31:58;95825.84;;;8.94;76.47
57232;BME280;43488;46.934;8.276;2023-04-01T21:41:02;95838.34;;;8.98;72.45
57232;BME280;43488;46.934;8.276;2023-04-01T21:44:07;95831.88;;;8.94;72.66
57232;BME280;43488;46.934;8.276;2023-04-01T21:47:03;95840.78;;;8.93;73.06
57232;BME280;43488;46.934;8.276;2023-04-01T21:58:59;95859.16;;;8.93;75.21
57232;BME280;43488;46.934;8.276;2023-04-01T22:05:06;95856.63;;;8.80;76.78
57232;BME280;43488;46.934;8.276;2023-04-01T22:17:08;95858.44;;;8.79;76.13
57232;BME280;43488;46.934;8.276;2023-04-01T22:25:56;95848.28;;;8.90;72.68
57232;BME280;43488;46.934;8.276;2023-04-01T22:31:16;95861.44;;;8.83;76.43
57232;BME280;43488;46.934;8.276;2023-04-01T22:40:23;95863.94;;;8.71;78.22
57232;BME280;43488;46.934;8.276;2023-04-01T22:53:57;95861.00;;;8.54;77.35
57232;BME280;43488;46.934;8.276;2023-04-01T22:59:42;95845.25;;;8.54;78.18
57232;BME280;43488;46.934;8.276;2023-04-01T23:02:29;95845.06;;;8.49;78.32
57232;BME280;43488;46.934;8.276;2023-04-01T23:05:02;95856.00;;;8.46;79.05
57232;BME280;43488;46.934;8.276;2023-04-01T23:10:47;95855.03;;;8.34;80.10
57232;BME280;43488;46.934;8.276;2023-04-01T23:13:22;95860.50;;;8.33;80.83
57232;BME280;43488;46.934;8.276;2023-04-01T23:15:53;95860.88;;;8.30;81.27
57232;BME280;43488;46.934;8.276;2023-04-01T23:18:34;95859.06;;;8.30;81.80
57232;BME280;43488;46.934;8.276;2023-04-01T23:26:48;95878.47;;;8.22;83.08
57232;BME280;43488;46.934;8.276;2023-04-01T23:29:20;95876.91;;;8.15;83.01